sensor_id;sensor_type;location;lat;lon;timestamp;pressure;altitude;pressure_sealevel;temperature;humidity
44359;BME280;30077;52.474;13.326;2022-10-31T00:02:08;101197.56;;;12.07;100.00
44359;BME280;30077;52.474;13.326;2022-10-31T00:07:08;101202.91;;;12.07;100.00
44359;BME280;30077;52.474;13.326;2022-10-31T00:12:08;101210.81;;;12.10;100.00
44359;BME280;30077;52.474;13.326;2022-10-31T00:17:08;101209.03;;;12.09;100.00
44359;BME280;30077;52.474;13.326;2022-10-31T00:22:09;101215.47;;;12.04;100.00
44359;BME280;30077;52.474;13.326;2022-10-31T00:27:09;101218.34;;;12.00;100.00
44359;BME280;30077;52.474;13.326;2022-10-31T00:32:11;101213.13;;;11.97;100.00
44359;BME280;30077;52.474;13.326;2022-10-31T00:37:11;101227.44;;;11.96;100.00
44359;BME280;30077;52.474;13.326;2022-10-31T00:42:11;101231.09;;;11.93;100.00
44359;BME280;30077;52.474;13.326;2022-10-31T00:47:11;101230.16;;;11.94;100.00
44359;BME280;30077;52.474;13.326;2022-10-31T00:52:12;101231.03;;;11.95;100.00
44359;BME280;30077;52.474;13.326;2022-10-31T00:57:12;101248.00;;;11.94;100.00
44359;BME280;30077;52.474;13.326;2022-10-31T01:02:12;101241.25;;;11.85;100.00
44359;BME280;30077;52.474;13.326;2022-10-31T01:07:12;101248.53;;;11.80;100.00
44359;BME280;30077;52.474;13.326;2022-10-31T01:12:14;101252.25;;;11.76;100.00
44359;BME280;30077;52.474;13.326;2022-10-31T01:17:14;101252.41;;;11.73;100.00
44359;BME280;30077;52.474;13.326;2022-10-31T01:22:14;101248.06;;;11.70;100.00
44359;BME280;30077;52.474;13.326;2022-10-31T01:27:15;101249.13;;;11.66;100.00
44359;BME280;30077;52.474;13.326;2022-10-31T01:32:15;101252.03;;;11.60;100.00
44359;BME280;30077;52.474;13.326;2022-10-31T01:37:15;101249.44;;;11.59;100.00
44359;BME280;30077;52.474;13.326;2022-10-31T01:42:18;101260.97;;;11.59;100.00
44359;BME280;30077;52.474;13.326;2022-10-31T01:47:24;101257.44;;;11.59;100.00
44359;BME280;30077;52.474;13.326;2022-10-31T01:52:32;101254.94;;;11.54;100.00
44359;BME280;30077;52.474;13.326;2022-10-31T01:57:37;101262.91;;;11.55;100.00
44359;BME280;30077;52.474;13.326;2022-10-31T02:02:40;101263.97;;;11.51;100.00
44359;BME280;30077;52.474;13.326;2022-10-31T02:07:55;101261.44;;;11.47;100.00
44359;BME280;30077;52.474;13.326;2022-10-31T02:12:58;101261.69;;;11.41;100.00
44359;BME280;30077;52.474;13.326;2022-10-31T02:17:59;101270.69;;;11.38;100.00
44359;BME280;30077;52.474;13.326;2022-10-31T02:23:18;101262.78;;;11.35;100.00
44359;BME280;30077;52.474;13.326;2022-10-31T02:28:34;101262.91;;;11.32;100.00
44359;BME280;30077;52.474;13.326;2022-10-31T02:33:44;101256.03;;;11.26;100.00
44359;BME280;30077;52.474;13.326;2022-10-31T02:39:01;101265.00;;;11.24;100.00
44359;BME280;30077;52.474;13.326;2022-10-31T02:49:08;101272.09;;;11.25;100.00
44359;BME280;30077;52.474;13.326;2022-10-31T02:54:19;101278.38;;;11.24;100.00
44359;BME280;30077;52.474;13.326;2022-10-31T02:59:22;101282.88;;;11.22;100.00
44359;BME280;30077;52.474;13.326;2022-10-31T03:04:58;101279.41;;;11.20;100.00
44359;BME280;30077;52.474;13.326;2022-10-31T03:10:05;101290.22;;;11.17;100.00
44359;BME280;30077;52.474;13.326;2022-10-31T03:15:30;101284.88;;;11.17;100.00
44359;BME280;30077;52.474;13.326;2022-10-31T03:20:34;101296.53;;;11.14;100.00
44359;BME280;30077;52.474;13.326;2022-10-31T03:25:37;101299.28;;;11.13;100.00
44359;BME280;30077;52.474;13.326;2022-10-31T03:30:41;101306.59;;;11.07;100.00
44359;BME280;30077;52.474;13.326;2022-10-31T03:35:44;101311.94;;;11.07;100.00
44359;BME280;30077;52.474;13.326;2022-10-31T03:40:47;101320.84;;;11.06;100.00
44359;BME280;30077;52.474;13.326;2022-10-31T03:45:50;101319.19;;;11.04;100.00
44359;BME280;30077;52.474;13.326;2022-10-31T03:51:03;101327.31;;;11.01;100.00
44359;BME280;30077;52.474;13.326;2022-10-31T03:56:12;101331.78;;;11.00;100.00
44359;BME280;30077;52.474;13.326;2022-10-31T04:01:16;101324.66;;;10.99;100.00
44359;BME280;30077;52.474;13.326;2022-10-31T04:06:18;101330.94;;;10.98;100.00
44359;BME280;30077;52.474;13.326;2022-10-31T04:11:24;101329.25;;;10.96;100.00
44359;BME280;30077;52.474;13.326;2022-10-31T04:16:25;101332.91;;;10.93;100.00
44359;BME280;30077;52.474;13.326;2022-10-31T04:21:28;101333.78;;;10.94;100.00
44359;BME280;30077;52.474;13.326;2022-10-31T04:26:29;101333.81;;;10.92;100.00
44359;BME280;30077;52.474;13.326;2022-10-31T04:31:29;101336.56;;;10.91;100.00
44359;BME280;30077;52.474;13.326;2022-10-31T04:36:31;101337.50;;;10.90;100.00
44359;BME280;30077;52.474;13.326;2022-10-31T04:41:31;101346.38;;;10.90;100.00
44359;BME280;30077;52.474;13.326;2022-10-31T04:46:31;101348.22;;;10.88;100.00
44359;BME280;30077;52.474;13.326;2022-10-31T04:51:32;101345.53;;;10.88;100.00
44359;BME280;30077;52.474;13.326;2022-10-31T04:56:32;101345.66;;;10.85;100.00
44359;BME280;30077;52.474;13.326;2022-10-31T05:01:32;101346.69;;;10.81;100.00
44359;BME280;30077;52.474;13.326;2022-10-31T05:06:32;101352.19;;;10.76;100.00
44359;BME280;30077;52.474;13.326;2022-10-31T05:11:33;101355.03;;;10.72;100.00
44359;BME280;30077;52.474;13.326;2022-10-31T05:16:33;101355.94;;;10.71;100.00
44359;BME280;30077;52.474;13.326;2022-10-31T05:21:33;101364.00;;;10.69;100.00
44359;BME280;30077;52.474;13.326;2022-10-31T05:26:34;101364.00;;;10.69;100.00
44359;BME280;30077;52.474;13.326;2022-10-31T05:31:34;101363.13;;;10.69;100.00
44359;BME280;30077;52.474;13.326;2022-10-31T05:36:34;101369.28;;;10.71;100.00
44359;BME280;30077;52.474;13.326;2022-10-31T05:41:34;101366.50;;;10.74;100.00
44359;BME280;30077;52.474;13.326;2022-10-31T05:46:38;101378.94;;;10.75;100.00
44359;BME280;30077;52.474;13.326;2022-10-31T05:51:38;101373.59;;;10.75;100.00
44359;BME280;30077;52.474;13.326;2022-10-31T05:56:39;101376.22;;;10.76;100.00
44359;BME280;30077;52.474;13.326;2022-10-31T06:01:40;101376.88;;;10.83;100.00
44359;BME280;30077;52.474;13.326;2022-10-31T06:06:40;101385.69;;;10.85;100.00
44359;BME280;30077;52.474;13.326;2022-10-31T06:11:40;101390.06;;;10.88;100.00
44359;BME280;30077;52.474;13.326;2022-10-31T06:16:40;101391.66;;;10.93;100.00
44359;BME280;30077;52.474;13.326;2022-10-31T06:21:41;101388.75;;;10.99;100.00
44359;BME280;30077;52.474;13.326;2022-10-31T06:26:43;101390.28;;;11.06;100.00
44359;BME280;30077;52.474;13.326;2022-10-31T06:31:46;101389.19;;;11.12;100.00
44359;BME280;30077;52.474;13.326;2022-10-31T06:36:46;101407.63;;;11.20;100.00
44359;BME280;30077;52.474;13.326;2022-10-31T06:41:48;101411.81;;;11.27;100.00
44359;BME280;30077;52.474;13.326;2022-10-31T06:46:48;101417.81;;;11.33;100.00
44359;BME280;30077;52.474;13.326;2022-10-31T06:51:49;101415.78;;;11.40;100.00
44359;BME280;30077;52.474;13.326;2022-10-31T06:56:49;101418.09;;;11.49;100.00
44359;BME280;30077;52.474;13.326;2022-10-31T07:01:50;101432.53;;;11.69;100.00
44359;BME280;30077;52.474;13.326;2022-10-31T07:06:51;101440.38;;;11.98;100.00
44359;BME280;30077;52.474;13.326;2022-10-31T07:11:53;101440.88;;;12.30;100.00
44359;BME280;30077;52.474;13.326;2022-10-31T07:16:53;101447.56;;;12.64;100.00
44359;BME280;30077;52.474;13.326;2022-10-31T07:21:53;101455.50;;;12.87;100.00
44359;BME280;30077;52.474;13.326;2022-10-31T07:26:53;101450.63;;;13.17;100.00
44359;BME280;30077;52.474;13.326;2022-10-31T07:31:55;101440.31;;;13.30;100.00
44359;BME280;30077;52.474;13.326;2022-10-31T07:36:56;101452.50;;;13.37;100.00
44359;BME280;30077;52.474;13.326;2022-10-31T07:41:58;101456.88;;;13.40;100.00
44359;BME280;30077;52.474;13.326;2022-10-31T07:47:00;101459.34;;;13.44;100.00
44359;BME280;30077;52.474;13.326;2022-10-31T07:52:00;101458.25;;;13.48;100.00
44359;BME280;30077;52.474;13.326;2022-10-31T07:57:01;101476.03;;;13.51;100.00
44359;BME280;30077;52.474;13.326;2022-10-31T08:02:01;101478.75;;;13.49;100.00
44359;BME280;30077;52.474;13.326;2022-10-31T08:07:03;101472.53;;;13.49;100.00
44359;BME280;30077;52.474;13.326;2022-10-31T08:12:04;101476.50;;;13.40;100.00
44359;BME280;30077;52.474;13.326;2022-10-31T08:17:04;101476.41;;;13.42;100.00
44359;BME280;30077;52.474;13.326;2022-10-31T08:22:04;101493.66;;;13.36;100.00
44359;BME280;30077;52.474;13.326;2022-10-31T08:27:04;101496.47;;;13.33;100.00
44359;BME280;30077;52.474;13.326;2022-10-31T08:32:05;101492.09;;;13.31;100.00
44359;BME280;30077;52.474;13.326;2022-10-31T08:37:05;101484.91;;;13.31;100.00
44359;BME280;30077;52.474;13.326;2022-10-31T08:42:06;101468.59;;;13.37;100.00
44359;BME280;30077;52.474;13.326;2022-10-31T08:47:07;101480.47;;;13.51;100.00
44359;BME280;30077;52.474;13.326;2022-10-31T08:52:07;101485.19;;;13.66;100.00
44359;BME280;30077;52.474;13.326;2022-10-31T08:57:09;101478.53;;;13.75;100.00
44359;BME280;30077;52.474;13.326;2022-10-31T09:02:09;101484.50;;;13.81;100.00
44359;BME280;30077;52.474;13.326;2022-10-31T09:07:09;101496.81;;;13.85;100.00
44359;BME280;30077;52.474;13.326;2022-10-31T09:12:10;101502.56;;;13.76;100.00
44359;BME280;30077;52.474;13.326;2022-10-31T09:17:11;101506.34;;;13.72;100.00
44359;BME280;30077;52.474;13.326;2022-10-31T09:22:11;101507.28;;;13.71;100.00
44359;BME280;30077;52.474;13.326;2022-10-31T09:27:11;101513.16;;;13.79;100.00
44359;BME280;30077;52.474;13.326;2022-10-31T09:32:13;101507.69;;;13.82;100.00
44359;BME280;30077;52.474;13.326;2022-10-31T09:37:13;101512.63;;;13.91;100.00
44359;BME280;30077;52.474;13.326;2022-10-31T09:47:52;101524.22;;;13.92;100.00
44359;BME280;30077;52.474;13.326;2022-10-31T09:53:02;101528.31;;;14.01;100.00
44359;BME280;30077;52.474;13.326;2022-10-31T09:58:04;101519.63;;;14.33;100.00
44359;BME280;30077;52.474;13.326;2022-10-31T10:03:26;101521.25;;;14.75;100.00
44359;BME280;30077;52.474;13.326;2022-10-31T10:08:31;101517.13;;;15.04;100.00
44359;BME280;30077;52.474;13.326;2022-10-31T10:13:55;101513.25;;;15.27;100.00
44359;BME280;30077;52.474;13.326;2022-10-31T10:24:52;101510.97;;;15.37;100.00
44359;BME280;30077;52.474;13.326;2022-10-31T10:30:02;101503.28;;;15.47;100.00
44359;BME280;30077;52.474;13.326;2022-10-31T10:40:52;101485.88;;;15.71;100.00
44359;BME280;30077;52.474;13.326;2022-10-31T10:51:46;101496.16;;;16.13;100.00
44359;BME280;30077;52.474;13.326;2022-10-31T10:56:53;101494.06;;;16.19;100.00
44359;BME280;30077;52.474;13.326;2022-10-31T11:01:57;101490.44;;;16.35;100.00
44359;BME280;30077;52.474;13.326;2022-10-31T11:07:04;101488.50;;;16.37;100.00
44359;BME280;30077;52.474;13.326;2022-10-31T11:12:10;101482.47;;;16.34;100.00
44359;BME280;30077;52.474;13.326;2022-10-31T11:17:22;101483.22;;;16.36;100.00
44359;BME280;30077;52.474;13.326;2022-10-31T11:22:25;101475.94;;;16.54;100.00
44359;BME280;30077;52.474;13.326;2022-10-31T11:27:26;101469.66;;;16.69;100.00
44359;BME280;30077;52.474;13.326;2022-10-31T11:32:27;101471.75;;;16.80;100.00
44359;BME280;30077;52.474;13.326;2022-10-31T11:37:32;101474.56;;;16.78;100.00
44359;BME280;30077;52.474;13.326;2022-10-31T11:42:38;101472.09;;;16.90;100.00
44359;BME280;30077;52.474;13.326;2022-10-31T11:47:42;101475.03;;;17.01;100.00
44359;BME280;30077;52.474;13.326;2022-10-31T11:52:44;101459.38;;;17.07;100.00
44359;BME280;30077;52.474;13.326;2022-10-31T11:57:49;101465.81;;;17.05;100.00
44359;BME280;30077;52.474;13.326;2022-10-31T12:08:08;101461.59;;;17.15;100.00
44359;BME280;30077;52.474;13.326;2022-10-31T12:13:34;101448.13;;;17.15;100.00
44359;BME280;30077;52.474;13.326;2022-10-31T12:18:52;101448.97;;;17.16;100.00
44359;BME280;30077;52.474;13.326;2022-10-31T12:40:02;101432.72;;;17.31;100.00
44359;BME280;30077;52.474;13.326;2022-10-31T12:45:28;101426.41;;;17.32;100.00
44359;BME280;30077;52.474;13.326;2022-10-31T12:56:25;101420.59;;;17.39;100.00
44359;BME280;30077;52.474;13.326;2022-10-31T13:01:34;101414.34;;;17.38;100.00
44359;BME280;30077;52.474;13.326;2022-10-31T13:06:39;101418.38;;;17.31;100.00
44359;BME280;30077;52.474;13.326;2022-10-31T13:11:45;101415.22;;;17.39;100.00
44359;BME280;30077;52.474;13.326;2022-10-31T13:16:47;101415.03;;;17.42;100.00
44359;BME280;30077;52.474;13.326;2022-10-31T13:22:22;101413.97;;;17.44;100.00
44359;BME280;30077;52.474;13.326;2022-10-31T13:27:26;101405.50;;;17.36;100.00
44359;BME280;30077;52.474;13.326;2022-10-31T13:48:37;101393.22;;;17.16;100.00
44359;BME280;30077;52.474;13.326;2022-10-31T13:58:56;101387.22;;;16.97;100.00
44359;BME280;30077;52.474;13.326;2022-10-31T14:04:04;101378.75;;;16.89;100.00
44359;BME280;30077;52.474;13.326;2022-10-31T14:09:06;101376.75;;;16.76;100.00
44359;BME280;30077;52.474;13.326;2022-10-31T14:14:18;101373.47;;;16.55;100.00
44359;BME280;30077;52.474;13.326;2022-10-31T14:19:19;101379.00;;;16.38;100.00
44359;BME280;30077;52.474;13.326;2022-10-31T14:29:31;101379.88;;;16.07;100.00
44359;BME280;30077;52.474;13.326;2022-10-31T14:34:34;101376.94;;;15.96;100.00
44359;BME280;30077;52.474;13.326;2022-10-31T14:40:02;101374.81;;;15.69;100.00
44359;BME280;30077;52.474;13.326;2022-10-31T14:45:27;101366.06;;;15.48;100.00
44359;BME280;30077;52.474;13.326;2022-10-31T14:50:52;101362.72;;;15.27;100.00
44359;BME280;30077;52.474;13.326;2022-10-31T14:55:55;101356.25;;;15.14;100.00
44359;BME280;30077;52.474;13.326;2022-10-31T15:00:56;101364.00;;;15.03;100.00
44359;BME280;30077;52.474;13.326;2022-10-31T15:06:00;101359.44;;;14.87;100.00
44359;BME280;30077;52.474;13.326;2022-10-31T15:11:13;101356.44;;;14.76;100.00
44359;BME280;30077;52.474;13.326;2022-10-31T15:16:27;101354.41;;;14.64;100.00
44359;BME280;30077;52.474;13.326;2022-10-31T15:21:28;101357.81;;;14.49;100.00
44359;BME280;30077;52.474;13.326;2022-10-31T15:26:33;101354.16;;;14.32;100.00
44359;BME280;30077;52.474;13.326;2022-10-31T15:31:35;101348.59;;;14.18;100.00
44359;BME280;30077;52.474;13.326;2022-10-31T15:36:35;101339.50;;;14.03;100.00
44359;BME280;30077;52.474;13.326;2022-10-31T15:47:15;101340.53;;;13.82;100.00
44359;BME280;30077;52.474;13.326;2022-10-31T15:52:24;101338.34;;;13.71;100.00
44359;BME280;30077;52.474;13.326;2022-10-31T15:57:26;101349.44;;;13.63;100.00
44359;BME280;30077;52.474;13.326;2022-10-31T16:02:27;101348.00;;;13.56;100.00
44359;BME280;30077;52.474;13.326;2022-10-31T16:07:28;101345.66;;;13.48;100.00
44359;BME280;30077;52.474;13.326;2022-10-31T16:12:44;101344.13;;;13.43;100.00
44359;BME280;30077;52.474;13.326;2022-10-31T16:17:47;101343.34;;;13.41;100.00
44359;BME280;30077;52.474;13.326;2022-10-31T16:22:49;101339.78;;;13.40;100.00
44359;BME280;30077;52.474;13.326;2022-10-31T16:27:52;101344.28;;;13.40;100.00
44359;BME280;30077;52.474;13.326;2022-10-31T16:37:54;101338.34;;;13.33;100.00
44359;BME280;30077;52.474;13.326;2022-10-31T16:42:56;101334.84;;;13.31;100.00
44359;BME280;30077;52.474;13.326;2022-10-31T16:48:06;101334.31;;;13.23;100.00
44359;BME280;30077;52.474;13.326;2022-10-31T16:53:06;101321.31;;;13.14;100.00
44359;BME280;30077;52.474;13.326;2022-10-31T16:58:17;101326.66;;;13.14;100.00
44359;BME280;30077;52.474;13.326;2022-10-31T17:03:19;101323.19;;;13.12;100.00
44359;BME280;30077;52.474;13.326;2022-10-31T17:08:19;101327.09;;;13.05;100.00
44359;BME280;30077;52.474;13.326;2022-10-31T17:13:22;101328.97;;;13.02;100.00
44359;BME280;30077;52.474;13.326;2022-10-31T17:18:23;101324.63;;;13.00;100.00
44359;BME280;30077;52.474;13.326;2022-10-31T17:23:23;101320.31;;;12.96;100.00
44359;BME280;30077;52.474;13.326;2022-10-31T17:28:25;101312.50;;;12.91;100.00
44359;BME280;30077;52.474;13.326;2022-10-31T17:33:28;101311.56;;;12.92;100.00
44359;BME280;30077;52.474;13.326;2022-10-31T17:38:28;101311.28;;;12.98;100.00
44359;BME280;30077;52.474;13.326;2022-10-31T17:43:28;101300.84;;;12.92;100.00
44359;BME280;30077;52.474;13.326;2022-10-31T17:48:29;101301.56;;;12.96;100.00
44359;BME280;30077;52.474;13.326;2022-10-31T17:53:31;101302.47;;;12.96;100.00
44359;BME280;30077;52.474;13.326;2022-10-31T17:58:33;101308.69;;;12.97;100.00
44359;BME280;30077;52.474;13.326;2022-10-31T18:03:35;101298.84;;;12.97;100.00
44359;BME280;30077;52.474;13.326;2022-10-31T18:08:38;101294.44;;;12.96;100.00
44359;BME280;30077;52.474;13.326;2022-10-31T18:13:39;101297.84;;;13.00;100.00
44359;BME280;30077;52.474;13.326;2022-10-31T18:18:42;101289.00;;;12.98;100.00
44359;BME280;30077;52.474;13.326;2022-10-31T18:23:42;101283.78;;;12.95;100.00
44359;BME280;30077;52.474;13.326;2022-10-31T18:28:43;101295.28;;;12.97;100.00
44359;BME280;30077;52.474;13.326;2022-10-31T18:33:44;101281.19;;;12.93;100.00
44359;BME280;30077;52.474;13.326;2022-10-31T18:38:44;101283.84;;;12.93;100.00
44359;BME280;30077;52.474;13.326;2022-10-31T18:43:44;101274.97;;;12.93;100.00
44359;BME280;30077;52.474;13.326;2022-10-31T18:48:45;101282.91;;;12.94;100.00
44359;BME280;30077;52.474;13.326;2022-10-31T18:53:50;101277.47;;;12.96;100.00
44359;BME280;30077;52.474;13.326;2022-10-31T18:58:51;101272.19;;;12.94;100.00
44359;BME280;30077;52.474;13.326;2022-10-31T19:03:53;101276.56;;;12.97;100.00
44359;BME280;30077;52.474;13.326;2022-10-31T19:08:59;101268.56;;;12.95;100.00
44359;BME280;30077;52.474;13.326;2022-10-31T19:14:00;101261.47;;;12.94;100.00
44359;BME280;30077;52.474;13.326;2022-10-31T19:19:00;101263.34;;;12.92;100.00
44359;BME280;30077;52.474;13.326;2022-10-31T19:24:00;101259.75;;;12.93;100.00
44359;BME280;30077;52.474;13.326;2022-10-31T19:29:01;101250.13;;;12.89;100.00
44359;BME280;30077;52.474;13.326;2022-10-31T19:34:04;101252.13;;;12.84;100.00
44359;BME280;30077;52.474;13.326;2022-10-31T19:39:04;101237.13;;;12.80;100.00
44359;BME280;30077;52.474;13.326;2022-10-31T19:44:04;101230.19;;;12.76;100.00
44359;BME280;30077;52.474;13.326;2022-10-31T19:49:08;101232.03;;;12.74;100.00
44359;BME280;30077;52.474;13.326;2022-10-31T19:54:12;101228.59;;;12.72;100.00
44359;BME280;30077;52.474;13.326;2022-10-31T19:59:12;101213.25;;;12.75;100.00
44359;BME280;30077;52.474;13.326;2022-10-31T20:04:12;101210.50;;;12.77;100.00
44359;BME280;30077;52.474;13.326;2022-10-31T20:09:13;101203.41;;;12.76;100.00
44359;BME280;30077;52.474;13.326;2022-10-31T20:14:15;101203.41;;;12.76;100.00
44359;BME280;30077;52.474;13.326;2022-10-31T20:19:16;101206.88;;;12.78;100.00
44359;BME280;30077;52.474;13.326;2022-10-31T20:24:16;101197.19;;;12.75;100.00
44359;BME280;30077;52.474;13.326;2022-10-31T20:29:17;101190.28;;;12.70;100.00
44359;BME280;30077;52.474;13.326;2022-10-31T20:34:19;101192.19;;;12.68;100.00
44359;BME280;30077;52.474;13.326;2022-10-31T20:39:20;101189.66;;;12.65;100.00
44359;BME280;30077;52.474;13.326;2022-10-31T20:44:20;101200.34;;;12.65;100.00
44359;BME280;30077;52.474;13.326;2022-10-31T20:49:22;101191.63;;;12.60;100.00
44359;BME280;30077;52.474;13.326;2022-10-31T20:54:22;101178.34;;;12.58;100.00
44359;BME280;30077;52.474;13.326;2022-10-31T20:59:22;101172.03;;;12.59;100.00
44359;BME280;30077;52.474;13.326;2022-10-31T21:04:23;101170.22;;;12.60;100.00
44359;BME280;30077;52.474;13.326;2022-10-31T21:09:23;101165.03;;;12.57;100.00
44359;BME280;30077;52.474;13.326;2022-10-31T21:14:23;101168.63;;;12.56;100.00
44359;BME280;30077;52.474;13.326;2022-10-31T21:19:25;101165.16;;;12.53;100.00
44359;BME280;30077;52.474;13.326;2022-10-31T21:24:25;101154.59;;;12.50;100.00
44359;BME280;30077;52.474;13.326;2022-10-31T21:29:27;101149.38;;;12.47;100.00
44359;BME280;30077;52.474;13.326;2022-10-31T21:34:28;101143.22;;;12.45;100.00
44359;BME280;30077;52.474;13.326;2022-10-31T21:39:28;101139.69;;;12.45;100.00
44359;BME280;30077;52.474;13.326;2022-10-31T21:44:28;101133.69;;;12.40;100.00
44359;BME280;30077;52.474;13.326;2022-10-31T21:49:28;101119.56;;;12.36;100.00
44359;BME280;30077;52.474;13.326;2022-10-31T21:54:29;101124.28;;;12.31;100.00
44359;BME280;30077;52.474;13.326;2022-10-31T21:59:31;101120.91;;;12.26;100.00
44359;BME280;30077;52.474;13.326;2022-10-31T22:04:32;101123.72;;;12.23;100.00
44359;BME280;30077;52.474;13.326;2022-10-31T22:09:34;101116.78;;;12.19;100.00
44359;BME280;30077;52.474;13.326;2022-10-31T22:14:35;101116.78;;;12.19;100.00
44359;BME280;30077;52.474;13.326;2022-10-31T22:19:35;101120.41;;;12.18;100.00
44359;BME280;30077;52.474;13.326;2022-10-31T22:24:35;101116.13;;;12.14;100.00
44359;BME280;30077;52.474;13.326;2022-10-31T22:29:35;101115.44;;;12.09;100.00
44359;BME280;30077;52.474;13.326;2022-10-31T22:34:36;101116.59;;;12.03;100.00
44359;BME280;30077;52.474;13.326;2022-10-31T22:39:36;101100.81;;;11.97;100.00
44359;BME280;30077;52.474;13.326;2022-10-31T22:44:37;101097.34;;;11.95;100.00
44359;BME280;30077;52.474;13.326;2022-10-31T22:49:37;101082.94;;;11.97;100.00
44359;BME280;30077;52.474;13.326;2022-10-31T22:54:37;101076.53;;;12.01;100.00
44359;BME280;30077;52.474;13.326;2022-10-31T22:59:38;101070.19;;;12.04;100.00
44359;BME280;30077;52.474;13.326;2022-10-31T23:04:38;101049.38;;;12.11;100.00
44359;BME280;30077;52.474;13.326;2022-10-31T23:09:39;101052.72;;;12.16;100.00
44359;BME280;30077;52.474;13.326;2022-10-31T23:14:40;101052.56;;;12.19;100.00
44359;BME280;30077;52.474;13.326;2022-10-31T23:19:40;101046.22;;;12.21;100.00
44359;BME280;30077;52.474;13.326;2022-10-31T23:24:42;101048.81;;;12.23;100.00
44359;BME280;30077;52.474;13.326;2022-10-31T23:34:49;101030.31;;;12.18;100.00
44359;BME280;30077;52.474;13.326;2022-10-31T23:39:50;101025.81;;;12.19;100.00
44359;BME280;30077;52.474;13.326;2022-10-31T23:44:51;101010.59;;;12.21;100.00
44359;BME280;30077;52.474;13.326;2022-10-31T23:49:51;101007.91;;;12.21;100.00
44359;BME280;30077;52.474;13.326;2022-10-31T23:54:51;100997.34;;;12.18;100.00
44359;BME280;30077;52.474;13.326;2022-10-31T23:59:52;100986.50;;;12.21;100.00
